createdAt,value
2019-05-16T00:01:19.298Z,2.17
2019-05-16T00:03:49.143Z,3.45
2019-05-16T00:06:18.643Z,2.40
2019-05-16T00:08:48.242Z,2.15
2019-05-16T00:13:48.868Z,2.15
2019-05-16T00:16:18.936Z,1.80
2019-05-16T00:18:48.435Z,1.77
2019-05-16T00:21:18.097Z,1.67
2019-05-16T00:23:48.553Z,1.67
2019-05-16T00:26:19.761Z,2.40
2019-05-16T00:28:49.480Z,2.27
2019-05-16T00:31:18.798Z,1.87
2019-05-16T00:33:48.667Z,3.12
2019-05-16T00:36:18.908Z,2.92
2019-05-16T00:38:48.655Z,2.80
2019-05-16T00:41:18.218Z,2.90
2019-05-16T00:43:48.517Z,2.40
2019-05-16T00:46:20.022Z,2.58
2019-05-16T00:48:49.174Z,2.58
2019-05-16T00:51:18.674Z,3.30
2019-05-16T00:53:49.107Z,2.40
2019-05-16T00:56:18.848Z,3.90
2019-05-16T00:58:48.718Z,3.05
2019-05-16T01:03:48.611Z,2.02
2019-05-16T01:06:22.514Z,2.33
2019-05-16T01:08:49.071Z,2.45
2019-05-16T01:11:18.783Z,2.15
2019-05-16T01:13:48.778Z,2.00
2019-05-16T01:16:18.832Z,3.27
2019-05-16T01:18:48.882Z,2.57
2019-05-16T01:21:18.745Z,4.53
2019-05-16T01:23:48.367Z,3.40
2019-05-16T01:26:18.532Z,2.20
2019-05-16T01:28:48.496Z,2.12
2019-05-16T01:31:19.145Z,2.95
2019-05-16T01:33:48.862Z,2.50
2019-05-16T01:36:31.833Z,2.50
2019-05-16T01:38:49.267Z,2.75
2019-05-16T01:41:18.727Z,2.95
2019-05-16T01:43:48.503Z,4.42
2019-05-16T01:46:18.290Z,2.60
2019-05-16T01:48:48.452Z,2.98
2019-05-16T01:51:18.512Z,2.95
2019-05-16T01:53:48.818Z,2.57
2019-05-16T01:56:18.448Z,2.60
2019-05-16T01:58:48.955Z,3.15
2019-05-16T02:03:48.851Z,3.37
2019-05-16T02:06:18.490Z,2.75
2019-05-16T02:08:48.767Z,2.77
2019-05-16T02:11:18.363Z,2.90
2019-05-16T02:13:48.408Z,3.08
2019-05-16T02:16:18.810Z,3.10
2019-05-16T02:18:48.984Z,3.47
2019-05-16T02:21:18.487Z,3.37
2019-05-16T02:23:51.345Z,3.15
2019-05-16T02:26:19.311Z,3.05
2019-05-16T02:28:50.670Z,3.50
2019-05-16T02:31:22.723Z,3.60
2019-05-16T02:33:51.366Z,3.05
2019-05-16T02:36:21.711Z,3.65
2019-05-16T02:38:55.378Z,4.42
2019-05-16T02:41:22.378Z,2.80
2019-05-16T02:43:51.874Z,3.02
2019-05-16T02:46:22.244Z,3.37
2019-05-16T02:48:52.636Z,4.25
2019-05-16T02:51:21.970Z,3.75
2019-05-16T02:53:51.384Z,3.35
2019-05-16T02:56:21.326Z,4.37
2019-05-16T02:58:52.034Z,3.80
2019-05-16T03:03:51.696Z,3.52
2019-05-16T03:06:21.820Z,3.33
2019-05-16T03:08:53.757Z,3.62
2019-05-16T03:11:24.680Z,3.92
2019-05-16T03:13:54.996Z,3.62
2019-05-16T03:16:26.028Z,3.35
2019-05-16T03:18:57.165Z,3.30
2019-05-16T03:21:30.854Z,3.55
2019-05-16T03:24:00.842Z,3.87
2019-05-16T03:29:01.213Z,4.47
2019-05-16T03:31:34.051Z,3.80
2019-05-16T03:34:07.642Z,3.42
2019-05-16T03:36:34.369Z,4.90
2019-05-16T03:39:05.097Z,4.25
2019-05-16T03:41:34.532Z,3.75
2019-05-16T03:44:03.923Z,3.50
2019-05-16T03:46:33.222Z,4.45
2019-05-16T03:49:03.733Z,4.62
2019-05-16T03:51:33.044Z,4.53
2019-05-16T03:54:03.004Z,5.28
2019-05-16T03:56:32.584Z,5.17
2019-05-16T03:59:01.913Z,5.65
2019-05-16T04:01:31.561Z,5.28
2019-05-16T04:04:01.640Z,5.22
2019-05-16T04:06:31.334Z,4.62
2019-05-16T04:09:01.654Z,4.83
2019-05-16T04:11:32.130Z,5.03
2019-05-16T04:14:01.771Z,4.65
2019-05-16T04:16:31.574Z,4.08
2019-05-16T04:19:01.899Z,4.07
2019-05-16T04:21:32.514Z,4.10
2019-05-16T04:24:03.249Z,3.45
2019-05-16T04:26:35.859Z,4.67
2019-05-16T04:29:03.655Z,4.35
2019-05-16T04:31:32.950Z,4.53
2019-05-16T04:34:02.280Z,4.55
2019-05-16T04:36:32.703Z,3.80
2019-05-16T04:39:02.287Z,4.70
2019-05-16T04:41:31.695Z,4.62
2019-05-16T04:44:04.513Z,4.28
2019-05-16T04:46:32.018Z,3.87
2019-05-16T04:49:01.870Z,3.87
2019-05-16T04:51:31.340Z,3.90
2019-05-16T04:54:01.995Z,4.55
2019-05-16T04:56:31.676Z,3.35
2019-05-16T04:59:01.013Z,3.80
2019-05-16T05:01:30.844Z,4.00
2019-05-16T05:04:10.271Z,4.15
2019-05-16T05:06:31.594Z,3.55
2019-05-16T05:09:03.473Z,3.50
2019-05-16T05:11:32.263Z,4.25
2019-05-16T05:14:01.584Z,4.47
2019-05-16T05:16:30.948Z,8.05
2019-05-16T05:19:00.496Z,4.25
2019-05-16T05:21:31.353Z,4.03
2019-05-16T05:24:01.056Z,4.62
2019-05-16T05:26:30.647Z,4.37
2019-05-16T05:29:00.180Z,5.47
2019-05-16T05:31:35.038Z,5.00
2019-05-16T05:34:01.347Z,4.75
2019-05-16T05:36:30.879Z,4.55
2019-05-16T05:39:11.237Z,4.37
2019-05-16T05:41:32.722Z,4.65
2019-05-16T05:44:02.034Z,4.62
2019-05-16T05:46:31.757Z,4.97
2019-05-16T05:49:01.274Z,4.77
2019-05-16T05:51:30.754Z,5.35
2019-05-16T05:54:00.268Z,5.65
2019-05-16T05:56:30.540Z,6.40
2019-05-16T05:59:01.543Z,6.60
2019-05-16T06:01:31.566Z,5.35
2019-05-16T06:04:01.095Z,5.55
2019-05-16T06:06:30.538Z,5.62
2019-05-16T06:09:00.718Z,5.90
2019-05-16T06:11:30.832Z,4.85
2019-05-16T06:14:03.326Z,4.72
2019-05-16T06:16:31.471Z,5.97
2019-05-16T06:19:00.967Z,5.72
2019-05-16T06:21:33.146Z,5.72
2019-05-16T06:24:02.533Z,6.08
2019-05-16T06:26:32.853Z,6.80
2019-05-16T06:29:02.260Z,5.67
2019-05-16T06:31:31.610Z,6.33
2019-05-16T06:34:08.555Z,7.50
2019-05-16T06:36:32.394Z,5.85
2019-05-16T06:39:01.734Z,7.33
2019-05-16T06:41:32.766Z,5.50
2019-05-16T06:44:02.071Z,6.37
2019-05-16T06:46:37.620Z,5.87
2019-05-16T06:49:02.393Z,6.37
2019-05-16T06:51:31.714Z,6.33
2019-05-16T06:54:01.020Z,6.62
2019-05-16T06:56:31.000Z,6.30
2019-05-16T06:59:00.861Z,6.08
2019-05-16T07:01:30.317Z,6.33
2019-05-16T07:04:00.149Z,5.87
2019-05-16T07:06:50.370Z,6.40
2019-05-16T07:09:01.050Z,6.90
2019-05-16T07:11:32.189Z,5.80
2019-05-16T07:14:01.522Z,7.22
2019-05-16T07:16:30.807Z,6.72
2019-05-16T07:19:00.905Z,6.12
2019-05-16T07:21:31.392Z,6.50
2019-05-16T07:24:00.728Z,6.55
2019-05-16T07:26:30.963Z,6.92
2019-05-16T07:29:00.566Z,6.45
2019-05-16T07:31:30.194Z,7.28
2019-05-16T07:34:00.809Z,6.58
2019-05-16T07:39:03.077Z,7.80
2019-05-16T07:41:32.444Z,7.15
2019-05-16T07:44:01.781Z,6.70
2019-05-16T07:46:31.672Z,8.55
2019-05-16T07:49:02.362Z,8.23
2019-05-16T07:51:31.720Z,7.15
2019-05-16T07:54:01.028Z,7.47
2019-05-16T07:56:30.940Z,7.90
2019-05-16T07:59:01.705Z,7.92
2019-05-16T08:01:31.090Z,7.75
2019-05-16T08:04:00.478Z,8.25
2019-05-16T08:06:33.672Z,8.30
2019-05-16T08:09:00.904Z,8.18
2019-05-16T08:11:31.818Z,8.40
2019-05-16T08:14:01.158Z,8.58
2019-05-16T08:16:30.790Z,10.00
2019-05-16T08:19:00.859Z,10.83
2019-05-16T08:21:30.980Z,9.95
2019-05-16T08:24:07.169Z,10.25
2019-05-16T08:26:38.230Z,9.43
2019-05-16T08:29:03.697Z,9.18
2019-05-16T08:31:33.056Z,9.33
2019-05-16T08:34:05.305Z,9.00
2019-05-16T08:36:34.879Z,8.60
2019-05-16T08:39:07.447Z,7.97
2019-05-16T08:41:42.392Z,8.90
2019-05-16T08:44:14.064Z,8.50
2019-05-16T08:46:57.145Z,7.62
2019-05-16T08:49:22.123Z,7.50
2019-05-16T08:52:06.142Z,7.55
2019-05-16T08:54:47.216Z,6.67
2019-05-16T08:59:54.427Z,7.58
2019-05-16T09:02:32.269Z,7.10
2019-05-16T09:04:54.769Z,7.25
2019-05-16T09:07:24.108Z,7.40
2019-05-16T09:09:53.411Z,6.95
2019-05-16T09:10:40.105Z,6.83
2019-05-16T09:12:22.872Z,6.65
2019-05-16T09:14:52.205Z,6.37
2019-05-16T09:17:21.683Z,6.58
2019-05-16T09:19:57.812Z,7.00
2019-05-16T09:22:28.537Z,6.97
2019-05-16T09:27:27.523Z,6.60
2019-05-16T09:29:57.106Z,7.30
2019-05-16T09:32:28.426Z,5.97
2019-05-16T09:34:57.924Z,6.60
2019-05-16T09:37:27.392Z,6.60
2019-05-16T09:39:59.306Z,6.12
2019-05-16T09:42:29.624Z,6.40
2019-05-16T09:45:00.227Z,6.33
2019-05-16T09:49:59.403Z,6.15
2019-05-16T09:52:29.185Z,6.55
2019-05-16T09:54:58.959Z,7.03
2019-05-16T09:57:28.601Z,6.72
2019-05-16T09:59:58.112Z,6.30
2019-05-16T10:02:27.621Z,6.42
2019-05-16T10:04:57.985Z,7.07
2019-05-16T10:07:28.416Z,7.12
2019-05-16T10:12:26.737Z,6.97
2019-05-16T10:14:59.128Z,5.97
2019-05-16T10:17:27.356Z,6.50
2019-05-16T10:20:00.128Z,6.70
2019-05-16T10:22:27.922Z,5.70
2019-05-16T10:24:57.395Z,5.97
2019-05-16T10:27:27.909Z,6.15
2019-05-16T10:30:01.040Z,6.65
2019-05-16T10:32:28.380Z,6.85
2019-05-16T10:34:57.866Z,6.65
2019-05-16T10:37:27.257Z,6.97
2019-05-16T10:39:59.454Z,6.67
2019-05-16T10:42:29.210Z,6.05
2019-05-16T10:44:58.785Z,7.03
2019-05-16T10:47:31.064Z,6.42
2019-05-16T10:49:59.095Z,7.10
2019-05-16T10:52:28.416Z,7.17
2019-05-16T10:55:02.099Z,6.62
2019-05-16T10:57:30.017Z,6.22
2019-05-16T11:00:09.196Z,6.75
2019-05-16T11:02:30.982Z,5.60
2019-05-16T11:05:14.366Z,6.50
2019-05-16T11:07:31.413Z,6.15
2019-05-16T11:10:03.448Z,6.30
2019-05-16T11:12:46.088Z,5.70
2019-05-16T11:15:03.119Z,6.87
2019-05-16T11:17:32.453Z,6.43
2019-05-16T11:20:01.863Z,6.37
2019-05-16T11:22:31.245Z,6.47
2019-05-16T11:25:00.556Z,6.47
2019-05-16T11:27:29.922Z,5.20
2019-05-16T11:29:59.328Z,5.95
2019-05-16T11:32:28.638Z,5.77
2019-05-16T11:34:57.973Z,5.03
2019-05-16T11:37:27.928Z,5.70
2019-05-16T11:39:57.380Z,6.12
2019-05-16T11:42:27.982Z,5.50
2019-05-16T11:44:58.079Z,5.70
2019-05-16T11:47:27.677Z,6.03
2019-05-16T11:49:57.126Z,5.83
2019-05-16T11:52:26.537Z,5.07
2019-05-16T11:54:57.190Z,5.95
2019-05-16T11:57:26.774Z,5.42
2019-05-16T11:59:56.821Z,5.33
2019-05-16T12:02:27.798Z,5.53
2019-05-16T12:05:07.614Z,6.12
2019-05-16T12:07:44.287Z,5.00
2019-05-16T12:10:10.589Z,5.10
2019-05-16T12:12:39.916Z,5.03
2019-05-16T12:15:10.305Z,4.22
2019-05-16T12:17:39.672Z,4.53
2019-05-16T12:20:09.429Z,4.42
2019-05-16T12:22:38.750Z,4.80
2019-05-16T12:25:10.782Z,4.45
2019-05-16T12:27:42.417Z,4.03
2019-05-16T12:32:21.999Z,4.53
2019-05-16T12:34:51.324Z,5.47
2019-05-16T12:37:20.652Z,5.00
2019-05-16T12:39:49.976Z,4.83
2019-05-16T12:42:22.329Z,3.92
2019-05-16T12:44:56.220Z,3.50
2019-05-16T12:47:25.149Z,3.60
2019-05-16T12:49:56.502Z,3.83
2019-05-16T12:52:27.161Z,3.95
2019-05-16T12:54:57.078Z,3.83
2019-05-16T12:57:27.599Z,4.25
2019-05-16T12:59:59.114Z,3.22
2019-05-16T13:02:34.139Z,4.87
2019-05-16T13:05:06.556Z,3.80
2019-05-16T13:07:37.678Z,4.17
2019-05-16T13:10:08.210Z,3.35
2019-05-16T13:15:09.105Z,3.67
2019-05-16T13:17:41.501Z,4.50
2019-05-16T13:20:11.260Z,4.50
2019-05-16T13:22:40.568Z,4.10
2019-05-16T13:25:10.092Z,3.72
2019-05-16T13:27:39.391Z,4.00
2019-05-16T13:30:10.185Z,4.62
2019-05-16T13:32:39.576Z,4.47
2019-05-16T13:35:09.120Z,3.27
2019-05-16T13:37:38.454Z,3.87
2019-05-16T13:40:08.488Z,3.77
2019-05-16T13:42:37.821Z,3.90
2019-05-16T13:45:08.032Z,4.60
2019-05-16T13:47:38.418Z,3.72
2019-05-16T13:50:12.053Z,3.92
2019-05-16T13:52:39.261Z,3.65
2019-05-16T13:55:09.636Z,4.97
2019-05-16T13:57:39.004Z,3.22
2019-05-16T14:00:09.593Z,3.73
2019-05-16T14:02:38.961Z,3.45
2019-05-16T14:05:10.433Z,3.90
2019-05-16T14:07:39.736Z,3.52
2019-05-16T14:10:10.010Z,2.97
2019-05-16T14:12:39.318Z,3.37
2019-05-16T14:15:09.290Z,3.45
2019-05-16T14:17:38.765Z,3.08
2019-05-16T14:20:14.437Z,3.47
2019-05-16T14:22:41.658Z,3.00
2019-05-16T14:25:11.393Z,3.07
2019-05-16T14:27:40.719Z,3.22
2019-05-16T14:30:10.847Z,2.77
2019-05-16T14:35:11.586Z,3.50
2019-05-16T14:37:40.909Z,3.20
2019-05-16T14:42:40.787Z,3.50
2019-05-16T14:45:17.821Z,3.90
2019-05-16T14:47:47.981Z,4.03
2019-05-16T14:50:17.875Z,3.52
2019-05-16T14:52:47.511Z,3.22
2019-05-16T14:55:18.405Z,3.80
2019-05-16T14:57:48.381Z,3.75
2019-05-16T15:00:18.821Z,3.98
2019-05-16T15:02:48.493Z,3.02
2019-05-16T15:05:18.189Z,4.50
2019-05-16T15:07:48.278Z,3.20
2019-05-16T15:12:47.567Z,3.27
2019-05-16T15:15:24.289Z,3.77
2019-05-16T15:17:56.632Z,3.55
2019-05-16T15:20:27.868Z,3.70
2019-05-16T15:22:56.764Z,9.08
2019-05-16T15:25:26.632Z,4.35
2019-05-16T15:27:57.535Z,3.58
2019-05-16T15:30:27.241Z,3.83
2019-05-16T15:32:57.022Z,3.30
2019-05-16T15:35:30.070Z,4.17
2019-05-16T15:37:59.064Z,4.03
2019-05-16T15:40:28.452Z,3.60
2019-05-16T15:48:04.024Z,5.47
2019-05-16T15:50:33.489Z,3.27
2019-05-16T15:53:03.337Z,3.40
2019-05-16T15:55:33.096Z,3.70
2019-05-16T15:58:02.594Z,4.03
2019-05-16T16:00:47.932Z,3.67
2019-05-16T16:03:17.710Z,3.77
2019-05-16T16:05:47.227Z,2.72
2019-05-16T16:08:18.222Z,10.32
2019-05-16T16:10:48.129Z,4.03
2019-05-16T16:13:19.867Z,3.22
2019-05-16T16:15:54.090Z,4.37
2019-05-16T16:18:22.030Z,3.70
2019-05-16T16:20:51.681Z,4.72
2019-05-16T16:23:20.999Z,4.33
2019-05-16T16:25:51.513Z,4.12
2019-05-16T16:28:21.300Z,4.15
2019-05-16T16:30:53.258Z,3.55
2019-05-16T16:33:28.960Z,3.55
2019-05-16T16:35:57.146Z,3.45
2019-05-16T16:38:25.988Z,3.70
2019-05-16T16:40:57.456Z,5.25
2019-05-16T16:43:26.408Z,3.92
2019-05-16T16:46:06.105Z,3.87
2019-05-16T16:48:26.817Z,3.83
2019-05-16T16:50:57.383Z,4.40
2019-05-16T16:53:27.613Z,3.70
2019-05-16T16:55:57.098Z,5.05
2019-05-16T16:58:26.850Z,4.60
2019-05-16T17:00:56.246Z,3.83
2019-05-16T17:03:27.284Z,3.85
2019-05-16T17:05:57.182Z,4.40
2019-05-16T17:08:27.292Z,4.15
2019-05-16T17:10:57.648Z,4.53
2019-05-16T17:13:28.629Z,5.10
2019-05-16T17:16:03.483Z,4.53
2019-05-16T17:18:33.694Z,4.55
2019-05-16T17:21:16.893Z,4.65
2019-05-16T17:23:46.690Z,4.40
2019-05-16T17:26:16.147Z,5.10
2019-05-16T17:28:46.737Z,4.67
2019-05-16T17:31:17.038Z,4.72
2019-05-16T17:33:46.507Z,6.78
2019-05-16T17:36:17.186Z,5.42
2019-05-16T17:38:46.868Z,4.70
2019-05-16T17:41:16.839Z,4.20
2019-05-16T17:43:46.955Z,6.45
2019-05-16T17:46:16.531Z,4.25
2019-05-16T17:48:46.871Z,4.60
2019-05-16T17:51:16.880Z,4.87
2019-05-16T17:53:46.468Z,4.83
2019-05-16T17:56:17.114Z,5.37
2019-05-16T17:58:46.973Z,4.62
2019-05-16T18:01:17.152Z,5.20
2019-05-16T18:06:16.992Z,4.10
2019-05-16T18:08:46.951Z,4.47
2019-05-16T18:11:17.870Z,6.25
2019-05-16T18:13:47.356Z,3.37
2019-05-16T18:16:16.689Z,3.15
2019-05-16T18:18:46.901Z,2.87
2019-05-16T18:21:17.032Z,2.52
2019-05-16T18:23:47.181Z,3.42
2019-05-16T18:26:17.309Z,3.08
2019-05-16T18:28:46.863Z,3.50
2019-05-16T18:31:17.221Z,2.72
2019-05-16T18:36:16.979Z,4.47
2019-05-16T18:38:46.753Z,2.65
2019-05-16T18:43:47.233Z,2.85
2019-05-16T18:48:47.195Z,2.72
2019-05-16T18:51:16.747Z,4.90
2019-05-16T18:53:46.552Z,2.33
2019-05-16T18:56:16.782Z,3.65
2019-05-16T18:58:46.710Z,3.12
2019-05-16T19:01:17.672Z,3.60
2019-05-16T19:03:49.025Z,3.02
2019-05-16T19:06:18.259Z,2.60
2019-05-16T19:08:47.639Z,2.90
2019-05-16T19:11:17.619Z,3.85
2019-05-16T19:13:47.540Z,2.15
2019-05-16T19:16:17.115Z,2.33
2019-05-16T19:18:46.512Z,3.08
2019-05-16T19:21:16.833Z,2.58
2019-05-16T19:23:46.408Z,2.65
2019-05-16T19:26:16.673Z,2.87
2019-05-16T19:28:46.700Z,3.08
2019-05-16T19:31:17.255Z,3.22
2019-05-16T19:33:48.900Z,2.58
2019-05-16T19:36:18.473Z,2.98
2019-05-16T19:38:48.324Z,2.80
2019-05-16T19:41:17.944Z,3.27
2019-05-16T19:43:47.810Z,3.12
2019-05-16T19:46:17.300Z,4.50
2019-05-16T19:48:46.900Z,5.28
2019-05-16T19:51:16.411Z,3.42
2019-05-16T19:53:47.132Z,3.33
2019-05-16T19:56:17.767Z,6.28
2019-05-16T19:58:47.372Z,3.15
2019-05-16T20:01:17.257Z,3.77
2019-05-16T20:03:47.140Z,3.60
2019-05-16T20:06:16.931Z,3.02
2019-05-16T20:08:46.407Z,3.12
2019-05-16T20:11:16.850Z,2.83
2019-05-16T20:13:47.350Z,4.55
2019-05-16T20:16:18.506Z,3.98
2019-05-16T20:18:48.001Z,3.22
2019-05-16T20:21:18.516Z,3.12
2019-05-16T20:23:50.906Z,4.37
2019-05-16T20:26:20.295Z,3.85
2019-05-16T20:28:51.298Z,3.60
2019-05-16T20:31:20.711Z,3.85
2019-05-16T20:33:50.125Z,4.35
2019-05-16T20:36:19.420Z,5.62
2019-05-16T20:38:48.736Z,5.72
2019-05-16T20:41:18.069Z,4.90
2019-05-16T20:43:47.601Z,5.17
2019-05-16T20:46:18.015Z,7.20
2019-05-16T20:48:47.318Z,4.58
2019-05-16T20:51:19.913Z,3.87
2019-05-16T20:53:49.775Z,3.98
2019-05-16T20:56:18.708Z,4.67
2019-05-16T20:58:48.650Z,3.42
2019-05-16T21:01:18.187Z,3.12
2019-05-16T21:03:47.559Z,3.17
2019-05-16T21:06:17.186Z,4.37
2019-05-16T21:08:49.633Z,3.37
2019-05-16T21:11:18.871Z,4.00
2019-05-16T21:13:49.051Z,4.05
2019-05-16T21:16:18.605Z,4.00
2019-05-16T21:18:48.032Z,4.92
2019-05-16T21:21:19.341Z,4.55
2019-05-16T21:23:48.359Z,3.85
2019-05-16T21:26:17.763Z,4.30
2019-05-16T21:28:47.091Z,4.80
2019-05-16T21:31:19.401Z,4.37
2019-05-16T21:33:47.630Z,7.55
2019-05-16T21:36:19.022Z,4.80
2019-05-16T21:38:48.142Z,4.30
2019-05-16T21:41:17.455Z,5.08
2019-05-16T21:43:47.062Z,3.85
2019-05-16T21:46:17.104Z,4.12
2019-05-16T21:48:47.365Z,4.95
2019-05-16T21:51:19.768Z,3.62
2019-05-16T21:53:48.006Z,4.50
2019-05-16T21:56:17.758Z,7.42
2019-05-16T21:58:47.450Z,5.00
2019-05-16T22:01:20.009Z,5.35
2019-05-16T22:03:49.685Z,4.95
2019-05-16T22:06:19.163Z,4.65
2019-05-16T22:08:48.561Z,4.62
2019-05-16T22:11:18.099Z,5.17
2019-05-16T22:13:49.061Z,4.28
2019-05-16T22:16:18.451Z,7.95
2019-05-16T22:18:47.776Z,5.55
2019-05-16T22:21:17.103Z,4.80
2019-05-16T22:23:46.666Z,4.85
2019-05-16T22:26:16.855Z,5.10
2019-05-16T22:28:49.386Z,4.55
2019-05-16T22:31:17.429Z,4.80
2019-05-16T22:33:47.034Z,4.53
2019-05-16T22:38:46.906Z,4.70
2019-05-16T22:41:17.308Z,5.55
2019-05-16T22:43:46.880Z,6.20
2019-05-16T22:46:17.834Z,5.05
2019-05-16T22:48:47.597Z,6.12
2019-05-16T22:51:16.892Z,4.80
2019-05-16T22:53:46.222Z,5.72
2019-05-16T22:56:17.391Z,5.10
2019-05-16T22:58:47.051Z,5.37
2019-05-16T23:01:17.635Z,5.70
2019-05-16T23:03:47.160Z,5.55
2019-05-16T23:06:16.548Z,6.20
2019-05-16T23:08:47.213Z,5.90
2019-05-16T23:11:16.548Z,6.58
2019-05-16T23:13:46.235Z,7.03
2019-05-16T23:16:17.136Z,6.90
2019-05-16T23:18:46.888Z,6.55
2019-05-16T23:21:16.980Z,6.55
2019-05-16T23:23:46.639Z,7.45
2019-05-16T23:26:16.716Z,8.08
2019-05-16T23:28:47.189Z,7.08
2019-05-16T23:31:16.781Z,7.55
2019-05-16T23:33:47.053Z,7.85
2019-05-16T23:36:17.424Z,7.83
2019-05-16T23:38:47.472Z,7.20
2019-05-16T23:41:17.350Z,8.13
2019-05-16T23:43:47.395Z,9.65
2019-05-16T23:46:16.880Z,8.98
2019-05-16T23:48:47.202Z,9.05
2019-05-16T23:51:17.056Z,9.33
2019-05-16T23:53:46.572Z,9.30
2019-05-16T23:56:16.741Z,8.93
2019-05-16T23:58:47.700Z,9.20
